Kazime Ana — TCPT8 — position and weather

sailwx.info

Track history (hours):
 
Tides and Currents Weather Stations Pressure Air Temp Water Temp Dewpoint Dewpoint Depression Visibility Wind Speed Wind Dir Waves Ship Positions

Kazime Ana

Last reported at 2014-Oct-26 08:20 UTC. Time now 2014-Oct-26 08:39 UTC.
Position N 40°53' E 029°11'.

Length 115 m; draft 6.9 m.

Type: Cargo ship. MMSI: 271001019.

Date/timePositionNaut miles runAvg speedWind from/ knotsBaromVisibWave heightAir tempDewpointWater temp
2014-Oct-26 08:20N 40°53' E 029°11'0 0.0
2014-Oct-26 07:32N 40°53' E 029°11'0 0.0
2014-Oct-26 06:20N 40°53' E 029°11'0 0.0
2014-Oct-26 05:26N 40°53' E 029°11'0 0.0
2014-Oct-26 04:32N 40°53' E 029°11'0 0.0
2014-Oct-26 03:32N 40°53' E 029°11'0 0.0
2014-Oct-26 02:32N 40°53' E 029°11'0 0.0
2014-Oct-26 01:32N 40°53' E 029°11'0 0.0
2014-Oct-26 00:32N 40°53' E 029°11'0 0.0
2014-Oct-25 23:32N 40°53' E 029°11'0 0.0
2014-Oct-25 22:32N 40°53' E 029°11'0 0.0
2014-Oct-25 21:32N 40°53' E 029°11'0 0.0
2014-Oct-25 20:32N 40°53' E 029°11'0 0.0
2014-Oct-25 19:32N 40°53' E 029°11'0 0.0
2014-Oct-25 18:32N 40°53' E 029°11'0 0.0
2014-Oct-25 17:32N 40°53' E 029°11'0 0.0
2014-Oct-25 16:26N 40°53' E 029°11'0 0.0
2014-Oct-25 15:32N 40°53' E 029°11'0 0.0
2014-Oct-25 14:32N 40°53' E 029°11'0 0.0
2014-Oct-25 13:32N 40°53' E 029°11'0 0.0
2014-Oct-25 12:26N 40°53' E 029°11'0 0.0
2014-Oct-25 11:32N 40°53' E 029°11'0 0.0
2014-Oct-25 10:32N 40°53' E 029°11'0 0.0
2014-Oct-25 09:26N 40°53' E 029°11'0 0.0
2014-Oct-25 08:20N 40°53' E 029°11'0 0.0
2014-Oct-25 07:14N 40°53' E 029°11'0 0.0
2014-Oct-25 06:26N 40°53' E 029°11'0 0.0
2014-Oct-25 05:32N 40°53' E 029°11'0 0.0
2014-Oct-25 04:32N 40°53' E 029°11'0 0.1
2014-Oct-25 03:32N 40°53' E 029°10'0 0.0
2014-Oct-25 02:20N 40°53' E 029°10'0 0.0
2014-Oct-25 01:26N 40°53' E 029°10'0 0.0
2014-Oct-25 00:32N 40°53' E 029°10'0 0.0
2014-Oct-24 23:32N 40°53' E 029°10'0 0.0
2014-Oct-24 22:20N 40°53' E 029°10'0 0.0
2014-Oct-24 21:32N 40°53' E 029°10'0 0.0
2014-Oct-24 20:32N 40°53' E 029°10'0 0.0
2014-Oct-24 19:32N 40°53' E 029°10'0 0.0
2014-Oct-24 18:32N 40°53' E 029°11'0 0.0
2014-Oct-24 17:26N 40°53' E 029°10'0 0.0
2014-Oct-24 16:32N 40°53' E 029°10'0 0.0
2014-Oct-24 15:20N 40°53' E 029°11'0 0.0
2014-Oct-24 14:26N 40°53' E 029°11'0 0.0
2014-Oct-24 13:08N 40°53' E 029°11'0 0.0
2014-Oct-24 12:32N 40°53' E 029°11'0 0.0
2014-Oct-24 11:26N 40°53' E 029°11'0 0.0
2014-Oct-24 10:32N 40°53' E 029°11'0 0.0
2014-Oct-24 09:32N 40°53' E 029°11'0 0.0
2014-Oct-24 08:32N 40°53' E 029°11'0 0.0
2014-Oct-24 07:32N 40°53' E 029°11'0 0.0
2014-Oct-24 06:32N 40°53' E 029°11'0 0.0
2014-Oct-24 05:33N 40°53' E 029°11'3 3.0
2014-Oct-24 04:33N 40°50' E 029°10'10 9.8
2014-Oct-24 03:33N 40°45' E 028°58'10 9.6
2014-Oct-24 02:33N 40°42' E 028°46'9 0.3
2014-Oct-22 20:15N 40°39' E 028°36'811.3
2014-Oct-22 19:33N 40°40' E 028°46'1111.1
2014-Oct-22 18:33N 40°42' E 029°01'1111.4
2014-Oct-22 17:33N 40°44' E 029°15'5 5.0
2014-Oct-22 16:33N 40°45' E 029°22'0 0.0
2014-Oct-22 15:30N 40°45' E 029°22'0 0.0
2014-Oct-22 14:30N 40°45' E 029°22'0 0.0
2014-Oct-22 13:24N 40°45' E 029°22'0 0.0
2014-Oct-22 12:30N 40°45' E 029°22'0 0.0
2014-Oct-22 11:30N 40°45' E 029°22'0 0.0
2014-Oct-22 06:24N 40°45' E 029°22'0 0.0
2014-Oct-22 05:06N 40°45' E 029°22'0 0.0
2014-Oct-22 04:18N 40°45' E 029°22'0 0.0
2014-Oct-22 03:30N 40°45' E 029°22'0 0.0
2014-Oct-22 02:30N 40°45' E 029°22'0 0.0
2014-Oct-22 01:30N 40°45' E 029°22'0 0.0
2014-Oct-22 00:30N 40°45' E 029°22'0 0.0
2014-Oct-21 23:24N 40°45' E 029°22'0 0.0
2014-Oct-21 22:30N 40°45' E 029°22'0 0.0
2014-Oct-21 21:12N 40°45' E 029°22'0 0.0
2014-Oct-21 20:06N 40°45' E 029°22'0 0.0
2014-Oct-21 19:30N 40°45' E 029°22'0 0.0
2014-Oct-21 18:30N 40°45' E 029°22'0 0.0
2014-Oct-21 17:24N 40°45' E 029°22'0 0.0
2014-Oct-21 16:30N 40°45' E 029°22'0 0.0
2014-Oct-20 11:26N 40°45' E 029°22'3 3.4
2014-Oct-20 10:33N 40°45' E 029°18'5 5.2
2014-Oct-20 09:33N 40°47' E 029°11'10 9.9
2014-Oct-20 08:33N 40°51' E 028°60'35 3.2
2014-Oct-19 21:22N 41°22' E 029°23'7 9.0
2014-Oct-19 20:33N 41°23' E 029°33'  
Track history (hours):
 
Tides and Currents Weather Stations Pressure Air Temp Water Temp Dewpoint Dewpoint Depression Visibility Wind Speed Wind Dir Waves Ship Positions

Kazime Ana

Last reported at 2014-Oct-26 08:20 UTC. Time now 2014-Oct-26 08:39 UTC.
Position N 40°53' E 029°11'.

Length 115 m; draft 6.9 m.

Type: Cargo ship. MMSI: 271001019.

Date/timePositionNaut miles runAvg speedWind from/ knotsBaromVisibWave heightAir tempDewpointWater temp
2014-Oct-26 08:20N 40°53' E 029°11'0 0.0
2014-Oct-26 07:32N 40°53' E 029°11'0 0.0
2014-Oct-26 06:20N 40°53' E 029°11'0 0.0
2014-Oct-26 05:26N 40°53' E 029°11'0 0.0
2014-Oct-26 04:32N 40°53' E 029°11'0 0.0
2014-Oct-26 03:32N 40°53' E 029°11'0 0.0
2014-Oct-26 02:32N 40°53' E 029°11'0 0.0
2014-Oct-26 01:32N 40°53' E 029°11'0 0.0
2014-Oct-26 00:32N 40°53' E 029°11'0 0.0
2014-Oct-25 23:32N 40°53' E 029°11'0 0.0
2014-Oct-25 22:32N 40°53' E 029°11'0 0.0
2014-Oct-25 21:32N 40°53' E 029°11'0 0.0
2014-Oct-25 20:32N 40°53' E 029°11'0 0.0
2014-Oct-25 19:32N 40°53' E 029°11'0 0.0
2014-Oct-25 18:32N 40°53' E 029°11'0 0.0
2014-Oct-25 17:32N 40°53' E 029°11'0 0.0
2014-Oct-25 16:26N 40°53' E 029°11'0 0.0
2014-Oct-25 15:32N 40°53' E 029°11'0 0.0
2014-Oct-25 14:32N 40°53' E 029°11'0 0.0
2014-Oct-25 13:32N 40°53' E 029°11'0 0.0
2014-Oct-25 12:26N 40°53' E 029°11'0 0.0
2014-Oct-25 11:32N 40°53' E 029°11'0 0.0
2014-Oct-25 10:32N 40°53' E 029°11'0 0.0
2014-Oct-25 09:26N 40°53' E 029°11'0 0.0
2014-Oct-25 08:20N 40°53' E 029°11'0 0.0
2014-Oct-25 07:14N 40°53' E 029°11'0 0.0
2014-Oct-25 06:26N 40°53' E 029°11'0 0.0
2014-Oct-25 05:32N 40°53' E 029°11'0 0.0
2014-Oct-25 04:32N 40°53' E 029°11'0 0.1
2014-Oct-25 03:32N 40°53' E 029°10'0 0.0
2014-Oct-25 02:20N 40°53' E 029°10'0 0.0
2014-Oct-25 01:26N 40°53' E 029°10'0 0.0
2014-Oct-25 00:32N 40°53' E 029°10'0 0.0
2014-Oct-24 23:32N 40°53' E 029°10'0 0.0
2014-Oct-24 22:20N 40°53' E 029°10'0 0.0
2014-Oct-24 21:32N 40°53' E 029°10'0 0.0
2014-Oct-24 20:32N 40°53' E 029°10'0 0.0
2014-Oct-24 19:32N 40°53' E 029°10'0 0.0
2014-Oct-24 18:32N 40°53' E 029°11'0 0.0
2014-Oct-24 17:26N 40°53' E 029°10'0 0.0
2014-Oct-24 16:32N 40°53' E 029°10'0 0.0
2014-Oct-24 15:20N 40°53' E 029°11'0 0.0
2014-Oct-24 14:26N 40°53' E 029°11'0 0.0
2014-Oct-24 13:08N 40°53' E 029°11'0 0.0
2014-Oct-24 12:32N 40°53' E 029°11'0 0.0
2014-Oct-24 11:26N 40°53' E 029°11'0 0.0
2014-Oct-24 10:32N 40°53' E 029°11'0 0.0
2014-Oct-24 09:32N 40°53' E 029°11'0 0.0
2014-Oct-24 08:32N 40°53' E 029°11'0 0.0
2014-Oct-24 07:32N 40°53' E 029°11'0 0.0
2014-Oct-24 06:32N 40°53' E 029°11'0 0.0
2014-Oct-24 05:33N 40°53' E 029°11'3 3.0
2014-Oct-24 04:33N 40°50' E 029°10'10 9.8
2014-Oct-24 03:33N 40°45' E 028°58'10 9.6
2014-Oct-24 02:33N 40°42' E 028°46'9 0.3
2014-Oct-22 20:15N 40°39' E 028°36'811.3
2014-Oct-22 19:33N 40°40' E 028°46'1111.1
2014-Oct-22 18:33N 40°42' E 029°01'1111.4
2014-Oct-22 17:33N 40°44' E 029°15'5 5.0
2014-Oct-22 16:33N 40°45' E 029°22'0 0.0
2014-Oct-22 15:30N 40°45' E 029°22'0 0.0
2014-Oct-22 14:30N 40°45' E 029°22'0 0.0
2014-Oct-22 13:24N 40°45' E 029°22'0 0.0
2014-Oct-22 12:30N 40°45' E 029°22'0 0.0
2014-Oct-22 11:30N 40°45' E 029°22'0 0.0
2014-Oct-22 06:24N 40°45' E 029°22'0 0.0
2014-Oct-22 05:06N 40°45' E 029°22'0 0.0
2014-Oct-22 04:18N 40°45' E 029°22'0 0.0
2014-Oct-22 03:30N 40°45' E 029°22'0 0.0
2014-Oct-22 02:30N 40°45' E 029°22'0 0.0
2014-Oct-22 01:30N 40°45' E 029°22'0 0.0
2014-Oct-22 00:30N 40°45' E 029°22'0 0.0
2014-Oct-21 23:24N 40°45' E 029°22'0 0.0
2014-Oct-21 22:30N 40°45' E 029°22'0 0.0
2014-Oct-21 21:12N 40°45' E 029°22'0 0.0
2014-Oct-21 20:06N 40°45' E 029°22'0 0.0
2014-Oct-21 19:30N 40°45' E 029°22'0 0.0
2014-Oct-21 18:30N 40°45' E 029°22'0 0.0
2014-Oct-21 17:24N 40°45' E 029°22'0 0.0
2014-Oct-21 16:30N 40°45' E 029°22'0 0.0
2014-Oct-20 11:26N 40°45' E 029°22'3 3.4
2014-Oct-20 10:33N 40°45' E 029°18'5 5.2
2014-Oct-20 09:33N 40°47' E 029°11'10 9.9
2014-Oct-20 08:33N 40°51' E 028°60'35 3.2
2014-Oct-19 21:22N 41°22' E 029°23'7 9.0
2014-Oct-19 20:33N 41°23' E 029°33'  

Dump ship's entire track history